sensor_id;sensor_type;location;lat;lon;timestamp;temperature;humidity
73572;DHT22;61854;48.510;-2.770;2022-09-09T00:00:23;15.80;90.20
73572;DHT22;61854;48.510;-2.770;2022-09-09T00:08:02;15.70;90.00
73572;DHT22;61854;48.510;-2.770;2022-09-09T00:10:38;15.70;90.20
73572;DHT22;61854;48.510;-2.770;2022-09-09T00:13:19;15.70;90.30
73572;DHT22;61854;48.510;-2.770;2022-09-09T00:21:12;15.60;90.30
73572;DHT22;61854;48.510;-2.770;2022-09-09T00:23:50;15.60;90.30
73572;DHT22;61854;48.510;-2.770;2022-09-09T00:26:42;15.50;90.30
73572;DHT22;61854;48.510;-2.770;2022-09-09T00:29:23;15.50;90.20
73572;DHT22;61854;48.510;-2.770;2022-09-09T00:31:54;15.50;90.30
73572;DHT22;61854;48.510;-2.770;2022-09-09T00:34:23;15.50;90.20
73572;DHT22;61854;48.510;-2.770;2022-09-09T00:36:50;15.50;90.10
73572;DHT22;61854;48.510;-2.770;2022-09-09T00:39:46;15.50;90.00
73572;DHT22;61854;48.510;-2.770;2022-09-09T00:47:56;15.50;90.00
73572;DHT22;61854;48.510;-2.770;2022-09-09T00:50:44;15.50;90.00
73572;DHT22;61854;48.510;-2.770;2022-09-09T00:56:12;15.50;90.10
73572;DHT22;61854;48.510;-2.770;2022-09-09T00:58:38;15.50;90.20
73572;DHT22;61854;48.510;-2.770;2022-09-09T01:01:09;15.40;90.20
73572;DHT22;61854;48.510;-2.770;2022-09-09T01:06:35;15.40;90.20
73572;DHT22;61854;48.510;-2.770;2022-09-09T01:12:11;15.50;90.00
73572;DHT22;61854;48.510;-2.770;2022-09-09T01:14:40;15.60;89.60
73572;DHT22;61854;48.510;-2.770;2022-09-09T01:19:45;15.60;89.70
73572;DHT22;61854;48.510;-2.770;2022-09-09T01:27:46;15.70;89.10
73572;DHT22;61854;48.510;-2.770;2022-09-09T01:30:16;15.70;89.00
73572;DHT22;61854;48.510;-2.770;2022-09-09T01:32:45;15.70;88.80
73572;DHT22;61854;48.510;-2.770;2022-09-09T01:37:55;15.80;88.60
73572;DHT22;61854;48.510;-2.770;2022-09-09T01:40:22;15.80;88.40
73572;DHT22;61854;48.510;-2.770;2022-09-09T01:42:47;15.80;88.20
73572;DHT22;61854;48.510;-2.770;2022-09-09T01:45:13;15.70;88.80
73572;DHT22;61854;48.510;-2.770;2022-09-09T01:47:39;15.70;88.90
73572;DHT22;61854;48.510;-2.770;2022-09-09T01:50:07;15.70;88.90
73572;DHT22;61854;48.510;-2.770;2022-09-09T01:52:36;15.70;88.80
73572;DHT22;61854;48.510;-2.770;2022-09-09T01:55:02;15.80;88.90
73572;DHT22;61854;48.510;-2.770;2022-09-09T01:57:33;15.80;88.40
73572;DHT22;61854;48.510;-2.770;2022-09-09T02:00:06;15.80;88.10
73572;DHT22;61854;48.510;-2.770;2022-09-09T02:05:40;15.80;87.90
73572;DHT22;61854;48.510;-2.770;2022-09-09T02:08:07;15.80;87.80
73572;DHT22;61854;48.510;-2.770;2022-09-09T02:10:47;15.90;88.00
73572;DHT22;61854;48.510;-2.770;2022-09-09T02:13:18;15.90;87.50
73572;DHT22;61854;48.510;-2.770;2022-09-09T02:18:45;15.90;87.20
73572;DHT22;61854;48.510;-2.770;2022-09-09T02:21:14;15.90;87.30
73572;DHT22;61854;48.510;-2.770;2022-09-09T02:23:45;15.80;87.00
73572;DHT22;61854;48.510;-2.770;2022-09-09T02:26:13;15.80;87.00
73572;DHT22;61854;48.510;-2.770;2022-09-09T02:28:46;15.90;87.00
73572;DHT22;61854;48.510;-2.770;2022-09-09T02:31:13;15.80;87.20
73572;DHT22;61854;48.510;-2.770;2022-09-09T02:33:45;15.80;87.00
73572;DHT22;61854;48.510;-2.770;2022-09-09T02:36:13;15.80;86.70
73572;DHT22;61854;48.510;-2.770;2022-09-09T02:38:46;15.90;86.80
73572;DHT22;61854;48.510;-2.770;2022-09-09T02:41:19;15.80;86.70
73572;DHT22;61854;48.510;-2.770;2022-09-09T02:43:47;15.90;86.70
73572;DHT22;61854;48.510;-2.770;2022-09-09T02:46:42;15.90;87.00
73572;DHT22;61854;48.510;-2.770;2022-09-09T02:52:21;15.80;87.30
73572;DHT22;61854;48.510;-2.770;2022-09-09T02:54:57;15.90;87.20
73572;DHT22;61854;48.510;-2.770;2022-09-09T02:57:29;15.90;86.90
73572;DHT22;61854;48.510;-2.770;2022-09-09T03:00:00;15.90;86.90
73572;DHT22;61854;48.510;-2.770;2022-09-09T03:02:26;15.90;86.90
73572;DHT22;61854;48.510;-2.770;2022-09-09T03:04:52;16.00;86.80
73572;DHT22;61854;48.510;-2.770;2022-09-09T03:07:19;16.00;86.60
73572;DHT22;61854;48.510;-2.770;2022-09-09T03:09:45;16.00;86.70
73572;DHT22;61854;48.510;-2.770;2022-09-09T03:12:11;16.00;86.40
73572;DHT22;61854;48.510;-2.770;2022-09-09T03:14:37;16.10;86.10
73572;DHT22;61854;48.510;-2.770;2022-09-09T03:17:04;16.10;85.60
73572;DHT22;61854;48.510;-2.770;2022-09-09T03:19:30;16.10;85.60
73572;DHT22;61854;48.510;-2.770;2022-09-09T03:21:57;16.20;86.00
73572;DHT22;61854;48.510;-2.770;2022-09-09T03:24:24;16.10;85.10
73572;DHT22;61854;48.510;-2.770;2022-09-09T03:26:49;16.10;86.20
73572;DHT22;61854;48.510;-2.770;2022-09-09T03:29:16;16.00;86.70
73572;DHT22;61854;48.510;-2.770;2022-09-09T03:31:44;16.00;86.80
73572;DHT22;61854;48.510;-2.770;2022-09-09T03:34:10;16.00;87.30
73572;DHT22;61854;48.510;-2.770;2022-09-09T03:36:39;15.90;87.10
73572;DHT22;61854;48.510;-2.770;2022-09-09T03:39:06;15.90;87.20
73572;DHT22;61854;48.510;-2.770;2022-09-09T03:41:32;15.90;87.20
73572;DHT22;61854;48.510;-2.770;2022-09-09T03:43:57;15.90;86.90
73572;DHT22;61854;48.510;-2.770;2022-09-09T03:46:25;15.90;87.20
73572;DHT22;61854;48.510;-2.770;2022-09-09T03:48:51;15.80;87.20
73572;DHT22;61854;48.510;-2.770;2022-09-09T03:51:17;15.90;87.30
73572;DHT22;61854;48.510;-2.770;2022-09-09T03:53:43;15.80;87.60
73572;DHT22;61854;48.510;-2.770;2022-09-09T03:56:09;15.80;87.60
73572;DHT22;61854;48.510;-2.770;2022-09-09T03:58:36;15.80;87.30
73572;DHT22;61854;48.510;-2.770;2022-09-09T04:01:07;15.90;87.20
73572;DHT22;61854;48.510;-2.770;2022-09-09T04:03:35;16.00;86.80
73572;DHT22;61854;48.510;-2.770;2022-09-09T04:06:05;16.00;87.40
73572;DHT22;61854;48.510;-2.770;2022-09-09T04:08:33;15.90;87.90
73572;DHT22;61854;48.510;-2.770;2022-09-09T04:11:00;15.80;88.40
73572;DHT22;61854;48.510;-2.770;2022-09-09T04:13:30;15.70;88.70
73572;DHT22;61854;48.510;-2.770;2022-09-09T04:15:58;15.70;88.80
73572;DHT22;61854;48.510;-2.770;2022-09-09T04:18:24;15.70;88.80
73572;DHT22;61854;48.510;-2.770;2022-09-09T04:20:52;15.70;88.80
73572;DHT22;61854;48.510;-2.770;2022-09-09T04:23:19;15.70;88.80
73572;DHT22;61854;48.510;-2.770;2022-09-09T04:25:50;15.70;88.80
73572;DHT22;61854;48.510;-2.770;2022-09-09T04:28:18;15.80;88.50
73572;DHT22;61854;48.510;-2.770;2022-09-09T04:30:44;15.80;88.10
73572;DHT22;61854;48.510;-2.770;2022-09-09T04:33:10;15.80;87.90
73572;DHT22;61854;48.510;-2.770;2022-09-09T04:35:37;15.90;87.70
73572;DHT22;61854;48.510;-2.770;2022-09-09T04:38:03;15.90;87.40
73572;DHT22;61854;48.510;-2.770;2022-09-09T04:40:30;15.90;87.20
73572;DHT22;61854;48.510;-2.770;2022-09-09T04:42:58;15.90;87.00
73572;DHT22;61854;48.510;-2.770;2022-09-09T04:45:24;16.00;87.20
73572;DHT22;61854;48.510;-2.770;2022-09-09T04:47:49;16.00;87.30
73572;DHT22;61854;48.510;-2.770;2022-09-09T04:50:15;16.00;87.10
73572;DHT22;61854;48.510;-2.770;2022-09-09T04:52:42;16.00;86.90
73572;DHT22;61854;48.510;-2.770;2022-09-09T04:55:08;16.00;86.80
73572;DHT22;61854;48.510;-2.770;2022-09-09T04:57:35;16.00;86.80
73572;DHT22;61854;48.510;-2.770;2022-09-09T05:00:00;16.00;86.70
73572;DHT22;61854;48.510;-2.770;2022-09-09T05:02:27;16.00;86.80
73572;DHT22;61854;48.510;-2.770;2022-09-09T05:04:53;16.00;87.00
73572;DHT22;61854;48.510;-2.770;2022-09-09T05:07:19;15.90;87.30
73572;DHT22;61854;48.510;-2.770;2022-09-09T05:09:44;15.80;87.70
73572;DHT22;61854;48.510;-2.770;2022-09-09T05:12:10;15.80;87.80
73572;DHT22;61854;48.510;-2.770;2022-09-09T05:14:36;15.80;88.00
73572;DHT22;61854;48.510;-2.770;2022-09-09T05:17:03;15.80;88.10
73572;DHT22;61854;48.510;-2.770;2022-09-09T05:19:29;15.80;88.20
73572;DHT22;61854;48.510;-2.770;2022-09-09T05:21:56;15.80;88.00
73572;DHT22;61854;48.510;-2.770;2022-09-09T05:24:22;15.80;88.20
73572;DHT22;61854;48.510;-2.770;2022-09-09T05:26:51;15.80;89.20
73572;DHT22;61854;48.510;-2.770;2022-09-09T05:29:17;15.70;89.80
73572;DHT22;61854;48.510;-2.770;2022-09-09T05:31:45;15.60;90.10
73572;DHT22;61854;48.510;-2.770;2022-09-09T05:34:11;15.50;90.20
73572;DHT22;61854;48.510;-2.770;2022-09-09T05:36:37;15.50;90.30
73572;DHT22;61854;48.510;-2.770;2022-09-09T05:39:03;15.50;90.30
73572;DHT22;61854;48.510;-2.770;2022-09-09T05:41:29;15.50;90.30
73572;DHT22;61854;48.510;-2.770;2022-09-09T05:43:55;15.50;90.20
73572;DHT22;61854;48.510;-2.770;2022-09-09T05:46:22;15.50;90.30
73572;DHT22;61854;48.510;-2.770;2022-09-09T05:48:50;15.50;90.20
73572;DHT22;61854;48.510;-2.770;2022-09-09T05:51:21;15.50;90.00
73572;DHT22;61854;48.510;-2.770;2022-09-09T05:53:48;15.50;89.90
73572;DHT22;61854;48.510;-2.770;2022-09-09T05:56:19;15.60;89.80
73572;DHT22;61854;48.510;-2.770;2022-09-09T05:58:46;15.60;89.60
73572;DHT22;61854;48.510;-2.770;2022-09-09T06:01:23;15.70;89.10
73572;DHT22;61854;48.510;-2.770;2022-09-09T06:03:50;15.80;88.60
73572;DHT22;61854;48.510;-2.770;2022-09-09T06:06:21;15.80;88.70
73572;DHT22;61854;48.510;-2.770;2022-09-09T06:08:49;15.80;88.50
73572;DHT22;61854;48.510;-2.770;2022-09-09T06:11:18;15.90;88.20
73572;DHT22;61854;48.510;-2.770;2022-09-09T06:13:44;15.90;87.60
73572;DHT22;61854;48.510;-2.770;2022-09-09T06:16:15;15.90;87.60
73572;DHT22;61854;48.510;-2.770;2022-09-09T06:18:42;16.00;87.50
73572;DHT22;61854;48.510;-2.770;2022-09-09T06:21:30;16.00;87.40
73572;DHT22;61854;48.510;-2.770;2022-09-09T06:23:58;16.00;87.90
73572;DHT22;61854;48.510;-2.770;2022-09-09T06:26:25;16.00;87.20
73572;DHT22;61854;48.510;-2.770;2022-09-09T06:28:53;16.00;87.30
73572;DHT22;61854;48.510;-2.770;2022-09-09T06:31:21;16.10;87.00
73572;DHT22;61854;48.510;-2.770;2022-09-09T06:33:49;16.10;86.90
73572;DHT22;61854;48.510;-2.770;2022-09-09T06:36:17;16.20;86.70
73572;DHT22;61854;48.510;-2.770;2022-09-09T06:38:44;16.30;86.50
73572;DHT22;61854;48.510;-2.770;2022-09-09T06:41:11;16.40;86.20
73572;DHT22;61854;48.510;-2.770;2022-09-09T06:43:37;16.40;85.90
73572;DHT22;61854;48.510;-2.770;2022-09-09T06:46:09;16.50;85.40
73572;DHT22;61854;48.510;-2.770;2022-09-09T06:48:36;16.50;85.10
73572;DHT22;61854;48.510;-2.770;2022-09-09T06:53:30;16.50;85.00
73572;DHT22;61854;48.510;-2.770;2022-09-09T06:56:02;16.50;85.10
73572;DHT22;61854;48.510;-2.770;2022-09-09T06:58:28;16.50;85.00
73572;DHT22;61854;48.510;-2.770;2022-09-09T07:01:05;16.60;85.20
73572;DHT22;61854;48.510;-2.770;2022-09-09T07:03:34;16.70;85.70
73572;DHT22;61854;48.510;-2.770;2022-09-09T07:06:00;16.80;84.30
73572;DHT22;61854;48.510;-2.770;2022-09-09T07:08:26;16.90;83.70
73572;DHT22;61854;48.510;-2.770;2022-09-09T07:10:53;17.10;83.40
73572;DHT22;61854;48.510;-2.770;2022-09-09T07:13:23;17.20;83.10
73572;DHT22;61854;48.510;-2.770;2022-09-09T07:15:51;17.10;83.00
73572;DHT22;61854;48.510;-2.770;2022-09-09T07:18:17;17.00;83.40
73572;DHT22;61854;48.510;-2.770;2022-09-09T07:20:43;16.80;83.30
73572;DHT22;61854;48.510;-2.770;2022-09-09T07:23:08;16.90;83.20
73572;DHT22;61854;48.510;-2.770;2022-09-09T07:25:34;16.90;82.30
73572;DHT22;61854;48.510;-2.770;2022-09-09T07:28:00;17.00;83.00
73572;DHT22;61854;48.510;-2.770;2022-09-09T07:30:25;17.00;83.00
73572;DHT22;61854;48.510;-2.770;2022-09-09T07:32:51;17.10;82.70
73572;DHT22;61854;48.510;-2.770;2022-09-09T07:35:17;17.10;82.50
73572;DHT22;61854;48.510;-2.770;2022-09-09T07:37:43;17.20;81.80
73572;DHT22;61854;48.510;-2.770;2022-09-09T07:40:10;17.20;81.70
73572;DHT22;61854;48.510;-2.770;2022-09-09T07:42:36;17.30;81.60
73572;DHT22;61854;48.510;-2.770;2022-09-09T07:45:03;17.40;81.70
73572;DHT22;61854;48.510;-2.770;2022-09-09T07:47:29;17.40;81.00
73572;DHT22;61854;48.510;-2.770;2022-09-09T07:49:55;17.40;80.50
73572;DHT22;61854;48.510;-2.770;2022-09-09T07:52:21;17.50;81.20
73572;DHT22;61854;48.510;-2.770;2022-09-09T07:54:47;17.60;79.80
73572;DHT22;61854;48.510;-2.770;2022-09-09T07:57:13;17.60;78.80
73572;DHT22;61854;48.510;-2.770;2022-09-09T07:59:38;17.60;79.70
73572;DHT22;61854;48.510;-2.770;2022-09-09T08:02:04;17.60;81.20
73572;DHT22;61854;48.510;-2.770;2022-09-09T08:04:29;17.50;82.10
73572;DHT22;61854;48.510;-2.770;2022-09-09T08:06:57;17.40;82.00
73572;DHT22;61854;48.510;-2.770;2022-09-09T08:09:24;17.40;81.80
73572;DHT22;61854;48.510;-2.770;2022-09-09T08:11:55;17.30;82.30
73572;DHT22;61854;48.510;-2.770;2022-09-09T08:14:22;17.30;83.40
73572;DHT22;61854;48.510;-2.770;2022-09-09T08:16:49;17.20;83.70
73572;DHT22;61854;48.510;-2.770;2022-09-09T08:19:16;17.20;82.20
73572;DHT22;61854;48.510;-2.770;2022-09-09T08:21:43;17.20;82.70
73572;DHT22;61854;48.510;-2.770;2022-09-09T08:24:10;17.20;82.70
73572;DHT22;61854;48.510;-2.770;2022-09-09T08:26:46;17.30;81.30
73572;DHT22;61854;48.510;-2.770;2022-09-09T08:29:14;17.40;80.70
73572;DHT22;61854;48.510;-2.770;2022-09-09T08:31:44;17.50;79.80
73572;DHT22;61854;48.510;-2.770;2022-09-09T08:34:10;17.60;78.70
73572;DHT22;61854;48.510;-2.770;2022-09-09T08:36:39;17.70;78.40
73572;DHT22;61854;48.510;-2.770;2022-09-09T08:39:08;17.80;77.30
73572;DHT22;61854;48.510;-2.770;2022-09-09T08:50:18;18.40;75.00
73572;DHT22;61854;48.510;-2.770;2022-09-09T08:55:48;18.50;73.20
73572;DHT22;61854;48.510;-2.770;2022-09-09T08:58:25;18.50;73.00
73572;DHT22;61854;48.510;-2.770;2022-09-09T09:11:44;18.40;72.50
73572;DHT22;61854;48.510;-2.770;2022-09-09T09:14:23;18.40;73.00
73572;DHT22;61854;48.510;-2.770;2022-09-09T09:17:04;18.50;72.20
73572;DHT22;61854;48.510;-2.770;2022-09-09T09:19:33;18.60;71.80
73572;DHT22;61854;48.510;-2.770;2022-09-09T09:27:39;19.10;69.50
73572;DHT22;61854;48.510;-2.770;2022-09-09T09:30:15;19.10;68.60
73572;DHT22;61854;48.510;-2.770;2022-09-09T09:35:34;19.10;69.50
73572;DHT22;61854;48.510;-2.770;2022-09-09T09:38:21;19.20;68.60
73572;DHT22;61854;48.510;-2.770;2022-09-09T09:40:52;19.20;68.20
73572;DHT22;61854;48.510;-2.770;2022-09-09T09:43:35;19.10;69.70
73572;DHT22;61854;48.510;-2.770;2022-09-09T09:46:04;18.90;70.80
73572;DHT22;61854;48.510;-2.770;2022-09-09T09:48:29;18.80;71.40
73572;DHT22;61854;48.510;-2.770;2022-09-09T09:51:08;18.60;72.30
73572;DHT22;61854;48.510;-2.770;2022-09-09T09:53:36;18.60;72.80
73572;DHT22;61854;48.510;-2.770;2022-09-09T09:56:14;18.60;72.50
73572;DHT22;61854;48.510;-2.770;2022-09-09T10:01:30;19.00;71.30
73572;DHT22;61854;48.510;-2.770;2022-09-09T10:04:19;19.20;69.60
73572;DHT22;61854;48.510;-2.770;2022-09-09T10:06:46;19.50;68.10
73572;DHT22;61854;48.510;-2.770;2022-09-09T10:09:26;19.60;66.60
73572;DHT22;61854;48.510;-2.770;2022-09-09T10:12:09;19.60;68.30
73572;DHT22;61854;48.510;-2.770;2022-09-09T10:17:38;19.10;76.70
73572;DHT22;61854;48.510;-2.770;2022-09-09T10:28:33;17.50;85.40
73572;DHT22;61854;48.510;-2.770;2022-09-09T10:32:08;17.40;87.70
73572;DHT22;61854;48.510;-2.770;2022-09-09T10:35:01;17.50;89.00
73572;DHT22;61854;48.510;-2.770;2022-09-09T10:40:13;17.80;89.10
73572;DHT22;61854;48.510;-2.770;2022-09-09T10:42:43;17.90;89.50
73572;DHT22;61854;48.510;-2.770;2022-09-09T10:45:23;18.00;88.60
73572;DHT22;61854;48.510;-2.770;2022-09-09T10:50:50;17.90;86.30
73572;DHT22;61854;48.510;-2.770;2022-09-09T10:56:10;17.50;86.90
73572;DHT22;61854;48.510;-2.770;2022-09-09T10:58:46;17.40;88.60
73572;DHT22;61854;48.510;-2.770;2022-09-09T11:01:25;17.40;89.40
73572;DHT22;61854;48.510;-2.770;2022-09-09T11:03:56;17.40;89.60
73572;DHT22;61854;48.510;-2.770;2022-09-09T11:06:31;17.50;90.20
73572;DHT22;61854;48.510;-2.770;2022-09-09T11:09:01;17.60;89.90
73572;DHT22;61854;48.510;-2.770;2022-09-09T11:11:48;17.70;90.00
73572;DHT22;61854;48.510;-2.770;2022-09-09T11:16:53;17.90;88.50
73572;DHT22;61854;48.510;-2.770;2022-09-09T11:19:34;17.90;87.00
73572;DHT22;61854;48.510;-2.770;2022-09-09T11:22:04;17.90;86.50
73572;DHT22;61854;48.510;-2.770;2022-09-09T11:24:47;17.90;86.00
73572;DHT22;61854;48.510;-2.770;2022-09-09T11:27:17;17.90;87.20
73572;DHT22;61854;48.510;-2.770;2022-09-09T11:40:28;18.00;82.40
73572;DHT22;61854;48.510;-2.770;2022-09-09T11:43:14;18.00;82.80
73572;DHT22;61854;48.510;-2.770;2022-09-09T11:45:42;18.00;82.00
73572;DHT22;61854;48.510;-2.770;2022-09-09T11:48:33;18.00;83.80
73572;DHT22;61854;48.510;-2.770;2022-09-09T11:51:11;18.10;81.40
73572;DHT22;61854;48.510;-2.770;2022-09-09T11:53:59;18.20;81.50
73572;DHT22;61854;48.510;-2.770;2022-09-09T11:56:41;18.20;79.60
73572;DHT22;61854;48.510;-2.770;2022-09-09T11:59:37;18.20;78.50
73572;DHT22;61854;48.510;-2.770;2022-09-09T12:02:32;18.10;79.60
73572;DHT22;61854;48.510;-2.770;2022-09-09T12:04:58;18.00;79.70
73572;DHT22;61854;48.510;-2.770;2022-09-09T12:07:31;17.70;83.20
73572;DHT22;61854;48.510;-2.770;2022-09-09T12:10:04;17.40;85.40
73572;DHT22;61854;48.510;-2.770;2022-09-09T12:12:41;17.30;87.80
73572;DHT22;61854;48.510;-2.770;2022-09-09T12:17:41;17.20;90.20
73572;DHT22;61854;48.510;-2.770;2022-09-09T12:34:41;18.10;88.00
73572;DHT22;61854;48.510;-2.770;2022-09-09T12:40:32;18.40;82.30
73572;DHT22;61854;48.510;-2.770;2022-09-09T12:43:01;18.40;78.90
73572;DHT22;61854;48.510;-2.770;2022-09-09T12:45:32;18.20;78.90
73572;DHT22;61854;48.510;-2.770;2022-09-09T12:48:07;18.00;77.40
73572;DHT22;61854;48.510;-2.770;2022-09-09T12:50:42;17.90;77.40
73572;DHT22;61854;48.510;-2.770;2022-09-09T12:53:33;17.90;81.30
73572;DHT22;61854;48.510;-2.770;2022-09-09T12:56:03;17.90;83.20
73572;DHT22;61854;48.510;-2.770;2022-09-09T12:58:30;18.10;81.90
73572;DHT22;61854;48.510;-2.770;2022-09-09T13:01:00;18.20;81.50
73572;DHT22;61854;48.510;-2.770;2022-09-09T13:03:30;18.20;82.10
73572;DHT22;61854;48.510;-2.770;2022-09-09T13:05:58;18.40;83.70
73572;DHT22;61854;48.510;-2.770;2022-09-09T13:08:27;18.60;83.40
73572;DHT22;61854;48.510;-2.770;2022-09-09T13:11:02;18.90;80.50
73572;DHT22;61854;48.510;-2.770;2022-09-09T13:13:40;19.10;80.10
73572;DHT22;61854;48.510;-2.770;2022-09-09T13:16:17;19.10;78.00
73572;DHT22;61854;48.510;-2.770;2022-09-09T13:18:43;19.40;76.80
73572;DHT22;61854;48.510;-2.770;2022-09-09T13:21:09;20.10;72.70
73572;DHT22;61854;48.510;-2.770;2022-09-09T13:23:36;20.40;72.70
73572;DHT22;61854;48.510;-2.770;2022-09-09T13:26:26;20.30;72.50
73572;DHT22;61854;48.510;-2.770;2022-09-09T13:28:55;20.40;71.90
73572;DHT22;61854;48.510;-2.770;2022-09-09T13:31:36;21.00;70.00
73572;DHT22;61854;48.510;-2.770;2022-09-09T13:34:31;21.90;66.00
73572;DHT22;61854;48.510;-2.770;2022-09-09T13:37:03;22.40;62.90
73572;DHT22;61854;48.510;-2.770;2022-09-09T13:39:33;22.40;62.20
73572;DHT22;61854;48.510;-2.770;2022-09-09T13:41:59;21.90;61.50
73572;DHT22;61854;48.510;-2.770;2022-09-09T13:44:27;21.30;63.80
73572;DHT22;61854;48.510;-2.770;2022-09-09T13:49:29;22.00;64.60
73572;DHT22;61854;48.510;-2.770;2022-09-09T13:52:24;22.00;62.30
73572;DHT22;61854;48.510;-2.770;2022-09-09T13:54:52;21.80;62.20
73572;DHT22;61854;48.510;-2.770;2022-09-09T13:57:24;22.00;62.20
73572;DHT22;61854;48.510;-2.770;2022-09-09T13:59:51;22.90;59.80
73572;DHT22;61854;48.510;-2.770;2022-09-09T14:02:17;23.60;57.10
73572;DHT22;61854;48.510;-2.770;2022-09-09T14:04:44;23.70;56.20
73572;DHT22;61854;48.510;-2.770;2022-09-09T14:07:14;23.80;53.50
73572;DHT22;61854;48.510;-2.770;2022-09-09T14:09:40;24.10;52.70
73572;DHT22;61854;48.510;-2.770;2022-09-09T14:12:12;24.40;54.50
73572;DHT22;61854;48.510;-2.770;2022-09-09T14:14:40;24.00;53.30
73572;DHT22;61854;48.510;-2.770;2022-09-09T14:17:08;23.20;54.50
73572;DHT22;61854;48.510;-2.770;2022-09-09T14:19:33;22.70;56.00
73572;DHT22;61854;48.510;-2.770;2022-09-09T14:21:59;23.30;56.20
73572;DHT22;61854;48.510;-2.770;2022-09-09T14:24:26;24.30;53.80
73572;DHT22;61854;48.510;-2.770;2022-09-09T14:26:53;24.40;51.80
73572;DHT22;61854;48.510;-2.770;2022-09-09T14:29:19;24.00;53.20
73572;DHT22;61854;48.510;-2.770;2022-09-09T14:31:44;23.40;54.70
73572;DHT22;61854;48.510;-2.770;2022-09-09T14:34:10;22.80;56.00
73572;DHT22;61854;48.510;-2.770;2022-09-09T14:36:37;22.40;57.30
73572;DHT22;61854;48.510;-2.770;2022-09-09T14:39:03;22.00;56.90
73572;DHT22;61854;48.510;-2.770;2022-09-09T14:41:30;21.70;57.60
73572;DHT22;61854;48.510;-2.770;2022-09-09T14:43:55;21.50;58.70
73572;DHT22;61854;48.510;-2.770;2022-09-09T14:46:21;21.50;57.60
73572;DHT22;61854;48.510;-2.770;2022-09-09T14:48:48;21.60;58.20
73572;DHT22;61854;48.510;-2.770;2022-09-09T14:51:17;21.80;57.60
73572;DHT22;61854;48.510;-2.770;2022-09-09T14:53:45;21.80;58.20
73572;DHT22;61854;48.510;-2.770;2022-09-09T14:56:14;22.10;57.40
73572;DHT22;61854;48.510;-2.770;2022-09-09T14:58:40;22.20;56.60
73572;DHT22;61854;48.510;-2.770;2022-09-09T15:01:11;21.80;57.10
73572;DHT22;61854;48.510;-2.770;2022-09-09T15:03:38;21.30;58.20
73572;DHT22;61854;48.510;-2.770;2022-09-09T15:06:12;21.00;60.50
73572;DHT22;61854;48.510;-2.770;2022-09-09T15:08:39;20.60;62.10
73572;DHT22;61854;48.510;-2.770;2022-09-09T15:11:06;20.40;62.90
73572;DHT22;61854;48.510;-2.770;2022-09-09T15:13:36;20.20;64.90
73572;DHT22;61854;48.510;-2.770;2022-09-09T15:16:23;20.10;65.10
73572;DHT22;61854;48.510;-2.770;2022-09-09T15:18:58;20.00;65.30
73572;DHT22;61854;48.510;-2.770;2022-09-09T15:21:30;20.00;65.00
73572;DHT22;61854;48.510;-2.770;2022-09-09T15:23:56;20.10;66.30
73572;DHT22;61854;48.510;-2.770;2022-09-09T15:28:49;20.90;62.10
73572;DHT22;61854;48.510;-2.770;2022-09-09T15:31:21;21.30;61.40
73572;DHT22;61854;48.510;-2.770;2022-09-09T15:33:52;21.50;59.80
73572;DHT22;61854;48.510;-2.770;2022-09-09T15:36:23;21.50;60.10
73572;DHT22;61854;48.510;-2.770;2022-09-09T15:38:50;21.40;59.40
73572;DHT22;61854;48.510;-2.770;2022-09-09T15:41:18;21.40;59.30
73572;DHT22;61854;48.510;-2.770;2022-09-09T15:43:51;21.70;59.30
73572;DHT22;61854;48.510;-2.770;2022-09-09T15:48:43;21.80;58.00
73572;DHT22;61854;48.510;-2.770;2022-09-09T15:51:10;21.70;58.30
73572;DHT22;61854;48.510;-2.770;2022-09-09T15:53:36;21.60;58.80
73572;DHT22;61854;48.510;-2.770;2022-09-09T15:56:02;21.50;60.00
73572;DHT22;61854;48.510;-2.770;2022-09-09T15:58:34;21.50;59.80
73572;DHT22;61854;48.510;-2.770;2022-09-09T16:01:10;21.30;58.30
73572;DHT22;61854;48.510;-2.770;2022-09-09T16:03:42;20.90;58.40
73572;DHT22;61854;48.510;-2.770;2022-09-09T16:06:09;20.70;59.00
73572;DHT22;61854;48.510;-2.770;2022-09-09T16:08:40;20.70;59.10
73572;DHT22;61854;48.510;-2.770;2022-09-09T16:11:10;20.80;58.70
73572;DHT22;61854;48.510;-2.770;2022-09-09T16:13:38;20.80;58.80
73572;DHT22;61854;48.510;-2.770;2022-09-09T16:16:07;20.60;59.80
73572;DHT22;61854;48.510;-2.770;2022-09-09T16:18:39;20.30;60.50
73572;DHT22;61854;48.510;-2.770;2022-09-09T16:21:05;20.10;62.30
73572;DHT22;61854;48.510;-2.770;2022-09-09T16:23:34;19.90;63.80
73572;DHT22;61854;48.510;-2.770;2022-09-09T16:26:00;19.70;65.10
73572;DHT22;61854;48.510;-2.770;2022-09-09T16:28:26;19.70;65.10
73572;DHT22;61854;48.510;-2.770;2022-09-09T16:30:52;19.70;65.20
73572;DHT22;61854;48.510;-2.770;2022-09-09T16:33:18;19.60;65.70
73572;DHT22;61854;48.510;-2.770;2022-09-09T16:35:43;19.40;67.00
73572;DHT22;61854;48.510;-2.770;2022-09-09T16:38:09;19.20;67.50
73572;DHT22;61854;48.510;-2.770;2022-09-09T16:40:38;19.00;68.50
73572;DHT22;61854;48.510;-2.770;2022-09-09T16:43:07;18.90;69.50
73572;DHT22;61854;48.510;-2.770;2022-09-09T16:45:33;18.80;70.10
73572;DHT22;61854;48.510;-2.770;2022-09-09T16:48:01;18.80;70.60
73572;DHT22;61854;48.510;-2.770;2022-09-09T16:50:27;18.80;70.80
73572;DHT22;61854;48.510;-2.770;2022-09-09T16:52:53;19.00;70.40
73572;DHT22;61854;48.510;-2.770;2022-09-09T16:55:19;19.10;69.10
73572;DHT22;61854;48.510;-2.770;2022-09-09T16:57:47;19.40;68.70
73572;DHT22;61854;48.510;-2.770;2022-09-09T17:00:16;19.70;67.70
73572;DHT22;61854;48.510;-2.770;2022-09-09T17:02:42;19.80;67.80
73572;DHT22;61854;48.510;-2.770;2022-09-09T17:05:08;20.00;67.00
73572;DHT22;61854;48.510;-2.770;2022-09-09T17:07:35;20.70;65.80
73572;DHT22;61854;48.510;-2.770;2022-09-09T17:10:01;21.40;62.40
73572;DHT22;61854;48.510;-2.770;2022-09-09T17:12:27;21.40;61.10
73572;DHT22;61854;48.510;-2.770;2022-09-09T17:14:55;21.20;61.90
73572;DHT22;61854;48.510;-2.770;2022-09-09T17:17:22;21.40;61.00
73572;DHT22;61854;48.510;-2.770;2022-09-09T17:19:47;21.40;61.20
73572;DHT22;61854;48.510;-2.770;2022-09-09T17:22:14;21.00;61.30
73572;DHT22;61854;48.510;-2.770;2022-09-09T17:24:40;20.50;63.50
73572;DHT22;61854;48.510;-2.770;2022-09-09T17:27:07;19.90;64.10
73572;DHT22;61854;48.510;-2.770;2022-09-09T17:29:32;19.50;65.80
73572;DHT22;61854;48.510;-2.770;2022-09-09T17:32:01;19.20;67.60
73572;DHT22;61854;48.510;-2.770;2022-09-09T17:34:27;19.00;67.70
73572;DHT22;61854;48.510;-2.770;2022-09-09T17:36:52;18.90;68.10
73572;DHT22;61854;48.510;-2.770;2022-09-09T17:39:18;18.90;68.50
73572;DHT22;61854;48.510;-2.770;2022-09-09T17:41:44;19.00;68.40
73572;DHT22;61854;48.510;-2.770;2022-09-09T17:44:10;19.00;67.60
73572;DHT22;61854;48.510;-2.770;2022-09-09T17:46:38;19.00;67.20
73572;DHT22;61854;48.510;-2.770;2022-09-09T17:49:07;19.00;67.60
73572;DHT22;61854;48.510;-2.770;2022-09-09T17:51:34;18.90;67.80
73572;DHT22;61854;48.510;-2.770;2022-09-09T17:54:06;18.70;68.20